createdAt,value
2018-07-04T00:00:38.435Z,18.10
2018-07-04T00:03:11.351Z,20.52
2018-07-04T00:05:44.306Z,19.67
2018-07-04T00:08:17.282Z,19.15
2018-07-04T00:10:50.293Z,19.50
2018-07-04T00:13:23.155Z,20.95
2018-07-04T00:15:55.953Z,19.92
2018-07-04T00:18:28.834Z,23.25
2018-07-04T00:21:01.839Z,19.57
2018-07-04T00:23:34.761Z,22.40
2018-07-04T00:26:07.582Z,20.30
2018-07-04T00:28:41.070Z,20.32
2018-07-04T00:31:13.799Z,21.15
2018-07-04T00:33:46.843Z,21.60
2018-07-04T00:36:19.839Z,20.75
2018-07-04T00:38:52.749Z,22.32
2018-07-04T00:41:25.802Z,19.25
2018-07-04T00:43:58.707Z,22.87
2018-07-04T00:46:31.665Z,20.40
2018-07-04T00:49:05.345Z,19.95
2018-07-04T00:51:38.262Z,21.00
2018-07-04T00:54:11.303Z,21.60
2018-07-04T00:56:44.306Z,22.27
2018-07-04T00:59:17.131Z,22.15
2018-07-04T01:01:49.986Z,20.02
2018-07-04T01:04:22.869Z,21.35
2018-07-04T01:06:55.907Z,20.95
2018-07-04T01:09:28.851Z,22.40
2018-07-04T01:12:01.780Z,20.90
2018-07-04T01:14:34.786Z,22.27
2018-07-04T01:17:08.486Z,22.02
2018-07-04T01:19:41.508Z,21.33
2018-07-04T01:22:14.443Z,24.18
2018-07-04T01:24:48.053Z,21.82
2018-07-04T01:27:21.083Z,23.90
2018-07-04T01:29:54.089Z,21.60
2018-07-04T01:32:27.056Z,22.37
2018-07-04T01:35:00.136Z,20.10
2018-07-04T01:37:33.146Z,23.25
2018-07-04T01:40:06.027Z,22.77
2018-07-04T01:42:39.060Z,22.98
2018-07-04T01:45:12.144Z,20.35
2018-07-04T01:47:45.038Z,21.20
2018-07-04T01:50:19.034Z,23.60
2018-07-04T01:52:51.843Z,22.07
2018-07-04T01:55:24.852Z,23.30
2018-07-04T01:57:57.925Z,20.92
2018-07-04T02:00:30.999Z,21.77
2018-07-04T02:03:03.955Z,23.38
2018-07-04T02:05:36.853Z,23.40
2018-07-04T02:08:10.000Z,22.77
2018-07-04T02:10:43.108Z,22.70
2018-07-04T02:13:16.005Z,20.37
2018-07-04T02:15:48.957Z,23.50
2018-07-04T02:18:21.790Z,22.60
2018-07-04T02:20:54.765Z,24.18
2018-07-04T02:23:27.809Z,23.10
2018-07-04T02:26:00.891Z,23.92
2018-07-04T02:28:33.984Z,21.75
2018-07-04T02:31:06.971Z,22.50
2018-07-04T02:33:39.802Z,22.77
2018-07-04T02:36:12.711Z,22.85
2018-07-04T02:38:45.876Z,22.98
2018-07-04T02:41:18.802Z,21.05
2018-07-04T02:43:51.673Z,26.12
2018-07-04T02:46:30.175Z,22.80
2018-07-04T02:49:03.970Z,21.65
2018-07-04T02:51:36.854Z,23.85
2018-07-04T02:54:09.935Z,20.23
2018-07-04T02:56:43.005Z,21.05
2018-07-04T02:59:16.002Z,24.95
2018-07-04T03:01:49.021Z,21.45
2018-07-04T03:04:22.087Z,24.95
2018-07-04T03:06:55.074Z,21.90
2018-07-04T03:09:28.101Z,22.82
2018-07-04T03:12:05.018Z,20.57
2018-07-04T03:14:37.863Z,23.05
2018-07-04T03:17:10.729Z,23.80
2018-07-04T03:19:43.681Z,22.98
2018-07-04T03:22:17.054Z,20.45
2018-07-04T03:24:49.961Z,29.77
2018-07-04T03:27:22.966Z,20.92
2018-07-04T03:29:56.668Z,21.25
2018-07-04T03:32:29.623Z,20.90
2018-07-04T03:35:02.517Z,21.33
2018-07-04T03:37:36.081Z,19.85
2018-07-04T03:40:13.406Z,22.35
2018-07-04T03:42:46.419Z,20.62
2018-07-04T03:45:19.556Z,22.02
2018-07-04T04:00:57.478Z,20.32
2018-07-04T04:03:30.257Z,20.10
2018-07-04T04:06:03.260Z,23.10
2018-07-04T04:08:36.279Z,20.27
2018-07-04T04:11:09.242Z,23.00
2018-07-04T04:13:42.210Z,21.10
2018-07-04T04:16:19.616Z,20.48
2018-07-04T04:18:53.028Z,23.10
2018-07-04T04:21:25.824Z,21.68
2018-07-04T04:23:58.755Z,25.50
2018-07-04T04:26:31.632Z,21.80
2018-07-04T04:29:04.530Z,20.70
2018-07-04T04:31:37.510Z,21.00
2018-07-04T04:34:10.536Z,19.82
2018-07-04T04:36:43.715Z,20.40
2018-07-04T04:39:16.622Z,21.25
2018-07-04T04:41:49.414Z,21.00
2018-07-04T04:44:22.437Z,24.63
2018-07-04T04:46:55.637Z,21.48
2018-07-04T04:49:28.519Z,21.42
2018-07-04T04:52:01.445Z,22.82
2018-07-04T04:54:34.348Z,24.77
2018-07-04T04:57:07.446Z,23.83
2018-07-04T04:59:40.518Z,26.40
2018-07-04T05:02:13.565Z,21.60
2018-07-04T05:04:46.635Z,24.60
2018-07-04T05:07:19.596Z,22.42
2018-07-04T05:09:52.551Z,21.73
2018-07-04T05:12:25.667Z,23.17
2018-07-04T05:14:58.773Z,24.83
2018-07-04T05:17:31.753Z,21.10
2018-07-04T05:20:04.806Z,22.43
2018-07-04T05:22:37.701Z,22.53
2018-07-04T05:25:10.663Z,22.60
2018-07-04T05:27:43.595Z,22.40
2018-07-04T05:30:16.563Z,22.40
2018-07-04T05:32:49.579Z,22.10
2018-07-04T05:35:22.578Z,21.77
2018-07-04T05:37:55.836Z,22.97
2018-07-04T05:40:28.749Z,22.87
2018-07-04T05:43:01.666Z,22.70
2018-07-04T05:45:34.770Z,25.50
2018-07-04T05:48:07.774Z,21.57
2018-07-04T05:50:40.676Z,19.47
2018-07-04T05:53:13.740Z,22.70
2018-07-04T05:55:46.688Z,21.70
2018-07-04T05:58:19.563Z,20.20
2018-07-04T06:00:52.505Z,19.00
2018-07-04T06:03:25.398Z,20.33
2018-07-04T06:05:58.330Z,19.10
2018-07-04T06:08:31.378Z,22.20
2018-07-04T06:11:04.184Z,22.97
2018-07-04T06:13:37.026Z,21.17
2018-07-04T06:16:10.055Z,21.20
2018-07-04T06:18:42.873Z,22.97
2018-07-04T06:21:15.882Z,20.37
2018-07-04T06:23:48.861Z,19.10
2018-07-04T06:26:21.709Z,19.63
2018-07-04T06:28:54.460Z,21.63
2018-07-04T06:31:27.332Z,21.47
2018-07-04T06:34:00.484Z,21.50
2018-07-04T06:36:33.463Z,21.30
2018-07-04T06:39:00.170Z,19.70
2018-07-04T06:41:26.881Z,17.80
2018-07-04T06:43:53.560Z,19.63
2018-07-04T06:46:20.259Z,18.70
2018-07-04T06:48:46.971Z,18.00
2018-07-04T06:51:13.666Z,18.73
2018-07-04T06:53:40.357Z,17.97
2018-07-04T06:56:07.042Z,17.80
2018-07-04T06:58:33.759Z,17.90
2018-07-04T07:01:00.510Z,20.57
2018-07-04T07:03:33.275Z,20.17
2018-07-04T07:06:06.370Z,19.07
2018-07-04T07:08:39.411Z,21.10
2018-07-04T07:11:12.283Z,18.37
2018-07-04T07:13:45.074Z,18.80
2018-07-04T07:16:17.994Z,18.53
2018-07-04T07:18:50.988Z,18.40
2018-07-04T07:21:23.999Z,18.83
2018-07-04T07:23:57.007Z,19.53
2018-07-04T07:26:29.826Z,20.53
2018-07-04T07:29:02.702Z,20.20
2018-07-04T07:31:35.446Z,19.40
2018-07-04T07:34:08.796Z,19.93
2018-07-04T07:36:41.607Z,18.93
2018-07-04T07:39:14.310Z,17.70
2018-07-04T07:41:47.136Z,16.70
2018-07-04T07:44:19.934Z,19.90
2018-07-04T07:46:52.692Z,17.27
2018-07-04T07:49:25.520Z,17.00
2018-07-04T07:51:58.390Z,17.80
2018-07-04T07:54:31.142Z,18.03
2018-07-04T07:57:04.099Z,17.93
2018-07-04T07:59:37.202Z,18.33
2018-07-04T08:02:10.308Z,17.27
2018-07-04T08:04:43.259Z,19.57
2018-07-04T08:07:15.990Z,16.80
2018-07-04T08:09:48.783Z,18.93
2018-07-04T08:12:21.798Z,17.43
2018-07-04T08:14:54.684Z,19.57
2018-07-04T08:17:27.546Z,17.53
2018-07-04T08:20:00.446Z,16.10
2018-07-04T08:22:33.396Z,18.23
2018-07-04T08:25:06.393Z,19.40
2018-07-04T08:27:39.180Z,18.73
2018-07-04T08:30:11.896Z,17.57
2018-07-04T08:32:44.675Z,16.30
2018-07-04T08:35:17.407Z,17.70
2018-07-04T08:37:50.186Z,18.93
2018-07-04T08:40:22.992Z,17.90
2018-07-04T08:42:55.763Z,20.30
2018-07-04T08:45:28.682Z,19.43
2018-07-04T08:48:01.579Z,17.60
2018-07-04T08:50:34.523Z,16.53
2018-07-04T08:53:07.507Z,17.47
2018-07-04T08:55:40.377Z,19.40
2018-07-04T08:58:13.444Z,20.60
2018-07-04T09:00:46.455Z,18.10
2018-07-04T09:03:19.342Z,17.53
2018-07-04T09:05:52.154Z,17.63
2018-07-04T09:08:25.095Z,16.60
2018-07-04T09:10:57.897Z,18.57
2018-07-04T09:13:30.759Z,17.90
2018-07-04T09:16:03.797Z,18.90
2018-07-04T09:18:36.660Z,21.13
2018-07-04T09:21:09.710Z,16.93
2018-07-04T09:23:42.695Z,19.47
2018-07-04T09:26:15.507Z,16.80
2018-07-04T09:28:48.210Z,17.07
2018-07-04T09:31:21.065Z,17.40
2018-07-04T09:33:54.008Z,17.30
2018-07-04T09:36:26.979Z,17.30
2018-07-04T09:38:59.985Z,18.30
2018-07-04T09:41:32.742Z,17.40
2018-07-04T09:44:05.556Z,16.33
2018-07-04T09:46:38.432Z,16.90
2018-07-04T09:49:11.403Z,18.53
2018-07-04T09:51:44.345Z,20.10
2018-07-04T09:54:17.130Z,17.10
2018-07-04T09:56:50.044Z,18.50
2018-07-04T09:59:22.847Z,17.57
2018-07-04T10:01:55.635Z,16.87
2018-07-04T10:04:28.643Z,19.17
2018-07-04T10:07:01.470Z,16.37
2018-07-04T10:09:34.342Z,16.63
2018-07-04T10:12:07.331Z,17.70
2018-07-04T10:14:40.204Z,19.13
2018-07-04T10:17:13.018Z,15.77
2018-07-04T10:19:45.936Z,17.37
2018-07-04T10:22:18.901Z,17.03
2018-07-04T10:24:51.787Z,16.27
2018-07-04T10:27:24.614Z,18.23
2018-07-04T10:29:57.492Z,16.30
2018-07-04T10:32:30.475Z,16.70
2018-07-04T10:35:03.519Z,16.27
2018-07-04T10:37:36.401Z,18.17
2018-07-04T10:40:09.422Z,17.40
2018-07-04T10:42:42.306Z,16.07
2018-07-04T10:45:15.194Z,20.10
2018-07-04T10:47:47.998Z,17.63
2018-07-04T10:50:20.723Z,18.90
2018-07-04T10:52:53.573Z,18.50
2018-07-04T10:55:26.579Z,17.13
2018-07-04T10:57:59.397Z,17.47
2018-07-04T11:00:32.182Z,19.57
2018-07-04T11:03:05.219Z,16.60
2018-07-04T11:05:38.185Z,17.50
2018-07-04T11:08:11.163Z,18.17
2018-07-04T11:10:44.122Z,18.90
2018-07-04T11:13:17.048Z,19.37
2018-07-04T11:15:49.890Z,17.90
2018-07-04T11:18:22.710Z,17.30
2018-07-04T11:20:56.154Z,19.50
2018-07-04T11:23:29.223Z,18.40
2018-07-04T11:26:02.183Z,16.70
2018-07-04T11:28:35.181Z,19.67
2018-07-04T11:31:08.062Z,17.90
2018-07-04T11:33:41.019Z,20.93
2018-07-04T11:36:13.892Z,19.90
2018-07-04T11:38:46.822Z,18.30
2018-07-04T11:41:19.754Z,18.00
2018-07-04T11:43:52.947Z,18.70
2018-07-04T11:46:19.647Z,20.80
2018-07-04T11:48:46.378Z,21.33
2018-07-04T11:51:13.101Z,20.00
2018-07-04T11:53:39.826Z,19.13
2018-07-04T11:56:06.547Z,22.30
2018-07-04T11:58:33.230Z,19.70
2018-07-04T12:00:59.941Z,19.70
2018-07-04T12:03:26.644Z,21.37
2018-07-04T12:05:59.705Z,21.00
2018-07-04T12:08:26.446Z,18.33
2018-07-04T12:10:53.630Z,20.90
2018-07-04T12:13:21.327Z,17.90
2018-07-04T12:15:49.120Z,21.50
2018-07-04T12:18:15.803Z,19.90
2018-07-04T12:20:43.504Z,17.80
2018-07-04T12:23:10.787Z,21.93
2018-07-04T12:25:37.801Z,18.97
2018-07-04T12:28:04.513Z,18.73
2018-07-04T12:30:31.215Z,18.90
2018-07-04T12:32:57.921Z,18.13
2018-07-04T12:35:24.639Z,18.27
2018-07-04T12:37:55.675Z,18.60
2018-07-04T12:40:22.418Z,18.83
2018-07-04T12:42:49.130Z,18.30
2018-07-04T12:45:15.867Z,18.60
2018-07-04T12:47:42.582Z,18.27
2018-07-04T12:50:15.662Z,17.70
2018-07-04T12:52:42.401Z,18.07
2018-07-04T12:55:15.480Z,21.87
2018-07-04T12:57:48.302Z,17.90
2018-07-04T13:00:21.154Z,20.80
2018-07-04T13:02:54.264Z,17.53
2018-07-04T13:05:27.364Z,17.70
2018-07-04T13:08:00.122Z,17.50
2018-07-04T13:10:33.013Z,18.60
2018-07-04T13:13:05.803Z,18.20
2018-07-04T13:15:38.711Z,17.30
2018-07-04T13:18:11.622Z,17.20
2018-07-04T13:20:44.488Z,19.77
2018-07-04T13:23:17.392Z,17.77
2018-07-04T13:25:50.457Z,16.40
2018-07-04T13:28:23.267Z,18.00
2018-07-04T13:30:56.281Z,18.90
2018-07-04T13:33:29.180Z,17.00
2018-07-04T13:36:02.107Z,21.43
2018-07-04T13:38:35.124Z,17.40
2018-07-04T13:41:08.088Z,17.50
2018-07-04T13:43:41.106Z,17.17
2018-07-04T13:46:13.985Z,18.47
2018-07-04T13:48:46.724Z,17.00
2018-07-04T13:51:19.792Z,17.30
2018-07-04T13:53:52.568Z,16.70
2018-07-04T13:56:25.428Z,18.00
2018-07-04T13:58:58.193Z,18.70
2018-07-04T14:01:31.022Z,18.60
2018-07-04T14:04:03.831Z,19.23
2018-07-04T14:06:36.605Z,19.63
2018-07-04T14:09:09.452Z,16.90
2018-07-04T14:11:42.198Z,17.77
2018-07-04T14:14:15.138Z,18.80
2018-07-04T14:16:47.856Z,18.20
2018-07-04T14:19:20.850Z,18.10
2018-07-04T14:21:53.826Z,18.73
2018-07-04T14:24:26.718Z,20.27
2018-07-04T14:26:59.638Z,18.67
2018-07-04T14:29:32.708Z,17.80
2018-07-04T14:32:05.904Z,16.50
2018-07-04T14:34:38.899Z,20.93
2018-07-04T14:37:11.803Z,18.10
2018-07-04T14:39:44.594Z,18.70
2018-07-04T14:42:17.821Z,19.77
2018-07-04T14:44:50.642Z,19.13
2018-07-04T14:47:23.653Z,19.17
2018-07-04T14:49:56.476Z,19.67
2018-07-04T14:52:29.217Z,18.20
2018-07-04T14:55:02.106Z,18.97
2018-07-04T14:57:35.026Z,18.83
2018-07-04T15:00:08.018Z,17.57
2018-07-04T15:02:40.932Z,16.67
2018-07-04T15:05:13.863Z,17.00
2018-07-04T15:07:46.877Z,17.70
2018-07-04T15:10:19.887Z,16.73
2018-07-04T15:12:53.047Z,18.40
2018-07-04T15:15:26.900Z,16.80
2018-07-04T15:17:59.766Z,19.20
2018-07-04T15:20:32.751Z,17.47
2018-07-04T15:23:05.675Z,17.60
2018-07-04T15:25:38.622Z,20.03
2018-07-04T15:28:11.590Z,19.53
2018-07-04T15:30:44.524Z,17.90
2018-07-04T15:33:17.624Z,18.00
2018-07-04T15:35:50.585Z,17.83
2018-07-04T15:38:23.606Z,17.90
2018-07-04T15:40:56.601Z,18.80
2018-07-04T15:43:29.533Z,17.30
2018-07-04T15:46:02.523Z,17.70
2018-07-04T15:48:35.445Z,17.50
2018-07-04T15:51:08.444Z,18.10
2018-07-04T15:53:41.561Z,16.60
2018-07-04T15:56:14.482Z,17.17
2018-07-04T15:58:47.381Z,17.63
2018-07-04T16:01:20.384Z,17.43
2018-07-04T16:03:53.400Z,17.97
2018-07-04T16:06:26.309Z,18.33
2018-07-04T16:08:59.143Z,17.37
2018-07-04T16:11:32.094Z,18.37
2018-07-04T16:14:05.207Z,17.87
2018-07-04T16:16:38.048Z,16.70
2018-07-04T16:19:10.943Z,17.37
2018-07-04T16:21:43.767Z,18.33
2018-07-04T16:24:16.790Z,17.73
2018-07-04T16:26:49.708Z,17.47
2018-07-04T16:29:23.347Z,18.30
2018-07-04T16:31:56.307Z,18.77
2018-07-04T16:34:29.225Z,19.20
2018-07-04T16:37:02.248Z,19.47
2018-07-04T16:39:35.254Z,19.13
2018-07-04T16:42:08.176Z,18.57
2018-07-04T16:44:41.032Z,16.77
2018-07-04T16:47:14.131Z,16.50
2018-07-04T16:49:46.987Z,18.30
2018-07-04T16:52:20.282Z,17.63
2018-07-04T16:54:53.366Z,16.90
2018-07-04T16:57:26.296Z,18.37
2018-07-04T16:59:59.453Z,18.10
2018-07-04T17:02:34.522Z,19.90
2018-07-04T17:05:07.406Z,17.27
2018-07-04T17:07:40.357Z,17.07
2018-07-04T17:10:13.247Z,17.70
2018-07-04T17:12:46.101Z,17.90
2018-07-04T17:15:19.052Z,15.87
2018-07-04T17:17:52.071Z,17.43
2018-07-04T17:20:25.190Z,18.07
2018-07-04T17:22:58.159Z,19.10
2018-07-04T17:25:31.252Z,17.03
2018-07-04T17:28:04.598Z,17.83
2018-07-04T17:30:37.635Z,16.77
2018-07-04T17:33:10.624Z,16.23
2018-07-04T17:35:44.096Z,17.40
2018-07-04T17:38:17.626Z,17.70
2018-07-04T17:40:50.945Z,18.17
2018-07-04T17:53:08.920Z,18.10
2018-07-04T17:55:41.937Z,17.03
2018-07-04T17:58:15.014Z,18.27
2018-07-04T18:00:48.203Z,20.67
2018-07-04T18:03:21.063Z,18.23
2018-07-04T18:05:54.253Z,24.60
2018-07-04T18:08:27.319Z,21.43
2018-07-04T18:11:00.524Z,25.03
2018-07-04T18:13:33.407Z,18.63
2018-07-04T18:16:06.420Z,18.30
2018-07-04T18:18:39.550Z,18.80
2018-07-04T18:21:18.160Z,16.97
2018-07-04T18:23:51.199Z,18.73
2018-07-04T18:26:24.235Z,20.60
2018-07-04T18:28:57.367Z,18.13
2018-07-04T18:31:30.463Z,18.27
2018-07-04T18:34:03.441Z,18.07
2018-07-04T18:36:37.108Z,18.60
2018-07-04T18:39:10.058Z,16.80
2018-07-04T18:41:43.075Z,17.70
2018-07-04T18:44:15.892Z,19.03
2018-07-04T18:46:48.997Z,17.77
2018-07-04T18:49:22.031Z,17.47
2018-07-04T18:51:55.144Z,17.20
2018-07-04T18:54:28.203Z,17.37
2018-07-04T18:57:01.199Z,18.90
2018-07-04T18:59:34.321Z,17.70
2018-07-04T19:02:07.445Z,18.57
2018-07-04T19:04:40.533Z,17.87
2018-07-04T19:07:13.465Z,18.10
2018-07-04T19:09:46.664Z,16.33
2018-07-04T19:12:19.642Z,18.50
2018-07-04T19:14:52.573Z,17.47
2018-07-04T19:17:25.651Z,18.43
2018-07-04T19:19:58.706Z,19.37
2018-07-04T19:22:31.619Z,18.13
2018-07-04T19:34:49.717Z,22.70
2018-07-04T19:37:22.924Z,20.87
2018-07-04T19:39:56.001Z,18.43
2018-07-04T19:42:29.003Z,18.70
2018-07-04T19:45:02.346Z,18.17
2018-07-04T19:47:35.345Z,19.10
2018-07-04T19:50:08.826Z,19.60
2018-07-04T19:52:41.746Z,19.73
2018-07-04T19:55:15.575Z,18.33
2018-07-04T19:57:48.633Z,19.13
2018-07-04T20:00:22.368Z,19.63
2018-07-04T20:02:55.241Z,18.33
2018-07-04T20:15:13.288Z,18.47
2018-07-04T20:17:47.739Z,22.00
2018-07-04T20:20:26.411Z,18.90
2018-07-04T20:22:59.411Z,20.83
2018-07-04T20:25:32.449Z,18.20
2018-07-04T20:37:50.523Z,17.87
2018-07-04T20:40:24.319Z,23.30
2018-07-04T20:43:01.620Z,20.20
2018-07-04T20:45:34.509Z,20.10
2018-07-04T20:48:07.622Z,20.77
2018-07-04T20:50:40.556Z,21.63
2018-07-04T20:53:13.732Z,20.70
2018-07-04T20:55:46.684Z,19.50
2018-07-04T20:58:19.652Z,24.17
2018-07-04T21:00:53.163Z,20.87
2018-07-04T21:03:26.164Z,19.20
2018-07-04T21:05:59.272Z,18.40
2018-07-04T21:08:32.212Z,18.10
2018-07-04T21:11:05.409Z,19.07
2018-07-04T21:13:38.305Z,18.40
2018-07-04T21:16:11.394Z,18.57
2018-07-04T21:18:44.252Z,18.00
2018-07-04T21:21:17.570Z,19.67
2018-07-04T21:23:50.581Z,19.73
2018-07-04T21:26:24.115Z,20.07
2018-07-04T21:29:00.991Z,18.57
2018-07-04T21:31:34.036Z,22.40
2018-07-04T21:34:07.802Z,19.17
2018-07-04T21:36:41.063Z,19.00
2018-07-04T21:39:13.920Z,21.53
2018-07-04T21:41:47.013Z,18.60
2018-07-04T21:44:19.934Z,18.90
2018-07-04T21:46:53.013Z,20.00
2018-07-04T21:49:30.861Z,18.73
2018-07-04T21:52:08.301Z,19.47
2018-07-04T21:54:41.383Z,20.43
2018-07-04T21:57:15.006Z,20.90
2018-07-04T22:09:38.784Z,19.13
2018-07-04T22:12:12.601Z,22.33
2018-07-04T22:14:45.685Z,19.07
2018-07-04T22:17:18.651Z,19.80
2018-07-04T22:19:51.718Z,20.77
2018-07-04T22:22:29.062Z,20.93
2018-07-04T22:25:02.861Z,20.33
2018-07-04T22:27:35.833Z,21.13
2018-07-04T22:30:08.785Z,22.00
2018-07-04T22:32:41.814Z,21.83
2018-07-04T22:35:14.865Z,20.60
2018-07-04T22:37:47.875Z,21.20
2018-07-04T22:40:25.231Z,22.63
2018-07-04T22:42:58.328Z,21.27
2018-07-04T22:45:36.007Z,21.13
2018-07-04T22:48:09.026Z,21.90
2018-07-04T22:50:42.873Z,22.13
2018-07-04T22:53:15.758Z,19.37
2018-07-04T22:55:48.976Z,21.10
2018-07-04T22:58:22.043Z,24.00
2018-07-04T23:00:55.292Z,20.93
2018-07-04T23:03:28.248Z,20.13
2018-07-04T23:06:01.311Z,20.10
2018-07-04T23:08:34.353Z,25.93
2018-07-04T23:11:07.672Z,21.50
2018-07-04T23:13:44.561Z,20.57
2018-07-04T23:16:17.535Z,23.60
2018-07-04T23:18:50.367Z,22.93
2018-07-04T23:21:23.318Z,19.83
2018-07-04T23:23:57.386Z,19.87
2018-07-04T23:26:32.125Z,18.80
2018-07-04T23:29:04.983Z,18.90
2018-07-04T23:31:38.783Z,20.00
2018-07-04T23:34:11.746Z,19.10
2018-07-04T23:36:44.821Z,20.93
2018-07-04T23:39:17.817Z,25.00
2018-07-04T23:41:50.768Z,21.40
2018-07-04T23:44:25.229Z,20.83
2018-07-04T23:46:58.049Z,19.20
2018-07-04T23:49:31.946Z,20.10
2018-07-04T23:52:04.951Z,25.17
2018-07-04T23:54:38.011Z,22.07
2018-07-04T23:57:11.634Z,22.60
2018-07-04T23:59:44.713Z,21.80
